Warsaw, Ohio
Current Conditions -  °F | °C
As of 10:16 PM on Thursday 18 Dec 2014 (Local Time) from K4I3 Reporting Station
Overcast Overcast  
Wind Chill: 19°   Ceiling: 800
Heat Index: 27°   Visibility: 7mi
Dew Point: 25°   Wind: 7mph
Humidity: 93%   Direction: 260°W
Pressure: 30.18"   Gusts: NA
Location:  40.34°N, 82.01°W
Report Text: K4I3 190316Z AUTO 26006KT 7SM OVC008 M03/M04 A3018 RMK AO2
Loading
Personal Weather Stations






























Interactive Weather Map New forecast layout! Learn more

10-Day Weather Forecast

Advertisements
Track Severe Weather on mobile